Aldine, Texas
Current Conditions -  °F | °C
As of 9:53 AM on Sunday 23 Nov 2014 (Local Time) from KIAH Reporting Station
Few Clouds Few Clouds  
Wind Chill: 67°   Ceiling: Unl
Heat Index: 67°   Visibility: 10mi
Dew Point: 59°   Wind: 12mph
Humidity: 76%   Direction: 250°WSW
Pressure: 29.66"   Gusts: 18mph
Location:  29.93°N, 95.38°W
Report Text: KIAH 231553Z 25010G16KT 10SM FEW020 19/15 A2966 RMK AO2 SLP044 T01940150
Loading
Personal Weather Stations






























Interactive Weather Map New forecast layout! Learn more

10-Day Weather Forecast

Advertisements
Track Severe Weather on mobile